createdAt,value
2018-03-20T00:02:09.003Z,8.70
2018-03-20T00:04:37.316Z,10.40
2018-03-20T00:07:05.075Z,11.57
2018-03-20T00:09:33.469Z,10.87
2018-03-20T00:12:01.846Z,10.53
2018-03-20T00:14:30.487Z,9.80
2018-03-20T00:16:58.066Z,8.63
2018-03-20T00:19:25.669Z,10.80
2018-03-20T00:21:53.192Z,10.40
2018-03-20T00:24:20.791Z,10.20
2018-03-20T00:26:48.311Z,13.23
2018-03-20T00:29:15.864Z,11.97
2018-03-20T00:31:43.408Z,10.23
2018-03-20T00:34:10.959Z,12.57
2018-03-20T00:36:38.969Z,11.50
2018-03-20T00:39:06.568Z,12.37
2018-03-20T00:41:34.928Z,9.83
2018-03-20T00:44:03.545Z,11.07
2018-03-20T00:46:31.996Z,11.27
2018-03-20T00:48:59.868Z,10.03
2018-03-20T00:51:27.514Z,12.50
2018-03-20T00:53:55.044Z,11.43
2018-03-20T00:56:22.791Z,11.00
2018-03-20T00:58:50.381Z,14.27
2018-03-20T01:01:17.916Z,9.57
2018-03-20T01:03:45.443Z,10.07
2018-03-20T01:06:12.989Z,11.30
2018-03-20T01:08:40.511Z,12.87
2018-03-20T01:11:08.794Z,11.67
2018-03-20T01:13:36.400Z,10.60
2018-03-20T01:16:03.961Z,12.67
2018-03-20T01:18:32.043Z,10.90
2018-03-20T01:20:59.736Z,11.57
2018-03-20T01:23:27.276Z,13.73
2018-03-20T01:25:54.811Z,9.37
2018-03-20T01:28:22.356Z,12.17
2018-03-20T01:30:49.942Z,12.83
2018-03-20T01:33:18.299Z,10.27
2018-03-20T01:35:45.837Z,13.73
2018-03-20T01:38:14.119Z,12.53
2018-03-20T01:40:42.416Z,12.63
2018-03-20T01:43:10.693Z,12.10
2018-03-20T01:45:38.228Z,14.10
2018-03-20T01:48:05.745Z,13.77
2018-03-20T01:50:33.414Z,11.73
2018-03-20T01:53:12.695Z,12.10
2018-03-20T01:55:40.239Z,12.27
2018-03-20T01:58:08.525Z,14.07
2018-03-20T02:00:36.842Z,8.50
2018-03-20T02:03:04.451Z,12.07
2018-03-20T02:05:32.383Z,14.23
2018-03-20T02:08:00.884Z,9.87
2018-03-20T02:10:28.516Z,10.13
2018-03-20T02:12:56.076Z,10.13
2018-03-20T02:15:23.777Z,9.03
2018-03-20T02:17:52.096Z,10.33
2018-03-20T02:20:19.623Z,9.30
2018-03-20T02:22:47.180Z,11.90
2018-03-20T02:25:15.712Z,13.20
2018-03-20T02:27:43.267Z,11.37
2018-03-20T02:30:11.553Z,12.83
2018-03-20T02:32:39.833Z,9.70
2018-03-20T02:35:07.402Z,10.53
2018-03-20T02:37:35.780Z,14.13
2018-03-20T02:40:03.462Z,11.67
2018-03-20T02:42:31.557Z,15.43
2018-03-20T02:45:00.849Z,12.17
2018-03-20T02:47:28.488Z,12.67
2018-03-20T02:49:56.044Z,11.77
2018-03-20T02:52:23.563Z,13.87
2018-03-20T02:54:51.240Z,17.27
2018-03-20T02:57:18.807Z,14.90
2018-03-20T02:59:46.337Z,13.93
2018-03-20T03:02:13.929Z,12.40
2018-03-20T03:04:41.422Z,10.60
2018-03-20T03:07:08.960Z,13.97
2018-03-20T03:09:36.636Z,12.97
2018-03-20T03:12:04.577Z,12.23
2018-03-20T03:14:32.212Z,13.43
2018-03-20T03:17:00.232Z,12.67
2018-03-20T03:19:27.803Z,14.70
2018-03-20T03:21:55.352Z,16.90
2018-03-20T03:24:22.903Z,14.13
2018-03-20T03:26:50.938Z,14.57
2018-03-20T03:29:18.503Z,11.37
2018-03-20T03:31:46.035Z,12.63
2018-03-20T03:34:13.764Z,14.27
2018-03-20T03:36:41.281Z,12.93
2018-03-20T03:39:08.808Z,10.77
2018-03-20T03:41:36.483Z,11.13
2018-03-20T03:44:04.128Z,11.97
2018-03-20T03:46:32.548Z,10.97
2018-03-20T03:49:00.410Z,12.33
2018-03-20T03:51:28.079Z,13.43
2018-03-20T03:53:56.448Z,11.60
2018-03-20T03:56:23.985Z,11.47
2018-03-20T03:58:51.543Z,10.90
2018-03-20T04:01:19.156Z,11.83
2018-03-20T04:03:47.368Z,12.00
2018-03-20T04:06:15.670Z,16.87
2018-03-20T04:08:43.200Z,15.60
2018-03-20T04:11:10.769Z,12.63
2018-03-20T04:13:38.308Z,14.70
2018-03-20T04:16:06.644Z,16.13
2018-03-20T04:18:35.079Z,11.17
2018-03-20T04:21:02.744Z,12.00
2018-03-20T04:23:30.405Z,14.83
2018-03-20T04:25:57.922Z,13.33
2018-03-20T04:28:25.497Z,14.10
2018-03-20T04:30:53.041Z,14.17
2018-03-20T04:33:20.919Z,16.27
2018-03-20T04:35:48.587Z,14.43
2018-03-20T04:38:16.846Z,14.43
2018-03-20T04:40:45.159Z,13.07
2018-03-20T04:43:12.678Z,12.33
2018-03-20T04:45:40.213Z,15.17
2018-03-20T04:48:07.770Z,12.97
2018-03-20T04:50:35.491Z,14.50
2018-03-20T04:53:03.659Z,13.03
2018-03-20T04:55:32.077Z,14.70
2018-03-20T04:58:00.485Z,15.07
2018-03-20T05:00:28.832Z,13.57
2018-03-20T05:02:56.373Z,18.77
2018-03-20T05:05:23.932Z,17.43
2018-03-20T05:07:51.495Z,14.80
2018-03-20T05:10:19.864Z,16.70
2018-03-20T05:12:47.412Z,15.33
2018-03-20T05:15:14.935Z,18.60
2018-03-20T05:17:45.464Z,19.60
2018-03-20T05:28:37.821Z,15.30
2018-03-20T05:31:06.276Z,18.33
2018-03-20T05:33:33.912Z,19.17
2018-03-20T05:36:01.525Z,17.50
2018-03-20T05:38:29.327Z,19.30
2018-03-20T05:40:56.856Z,20.87
2018-03-20T05:43:25.095Z,19.87
2018-03-20T05:45:52.665Z,20.57
2018-03-20T05:51:24.660Z,20.13
2018-03-20T05:53:52.948Z,17.70
2018-03-20T05:56:21.363Z,18.47
2018-03-20T05:58:48.918Z,18.20
2018-03-20T06:01:16.460Z,20.67
2018-03-20T06:03:44.004Z,21.83
2018-03-20T06:06:11.527Z,17.97
2018-03-20T06:08:39.084Z,21.37
2018-03-20T06:11:06.651Z,18.27
2018-03-20T06:13:34.224Z,22.43
2018-03-20T06:16:02.546Z,20.40
2018-03-20T06:18:30.107Z,17.63
2018-03-20T06:20:58.778Z,16.77
2018-03-20T06:23:27.185Z,19.50
2018-03-20T06:25:55.464Z,20.37
2018-03-20T06:28:23.107Z,19.63
2018-03-20T06:30:50.747Z,15.17
2018-03-20T06:33:18.272Z,19.17
2018-03-20T06:35:45.852Z,17.30
2018-03-20T06:38:13.364Z,19.50
2018-03-20T06:40:40.895Z,18.00
2018-03-20T06:43:08.422Z,22.47
2018-03-20T06:45:36.041Z,16.80
2018-03-20T06:48:03.653Z,20.33
2018-03-20T06:50:32.323Z,18.80
2018-03-20T06:53:00.304Z,20.63
2018-03-20T06:55:29.269Z,17.50
2018-03-20T06:57:56.824Z,21.60
2018-03-20T07:00:24.361Z,21.40
2018-03-20T07:02:51.904Z,22.47
2018-03-20T07:05:20.356Z,20.83
2018-03-20T07:07:47.954Z,20.50
2018-03-20T07:10:15.500Z,21.23
2018-03-20T07:12:43.040Z,27.60
2018-03-20T07:15:10.560Z,22.40
2018-03-20T07:17:38.095Z,27.33
2018-03-20T07:20:05.804Z,20.13
2018-03-20T07:22:33.391Z,26.77
2018-03-20T07:25:01.066Z,26.33
2018-03-20T07:27:28.740Z,28.03
2018-03-20T07:29:56.287Z,26.30
2018-03-20T07:32:23.828Z,29.40
2018-03-20T07:34:51.465Z,28.70
2018-03-20T07:37:19.868Z,24.40
2018-03-20T07:39:47.482Z,24.23
2018-03-20T07:42:14.996Z,21.57
2018-03-20T07:44:43.303Z,23.83
2018-03-20T07:47:11.584Z,21.03
2018-03-20T07:49:39.889Z,29.83
2018-03-20T07:52:07.484Z,23.07
2018-03-20T07:54:35.085Z,27.73
2018-03-20T07:57:02.863Z,27.33
2018-03-20T07:59:30.568Z,25.03
2018-03-20T08:01:58.200Z,26.80
2018-03-20T08:04:25.735Z,30.77
2018-03-20T08:06:53.293Z,29.30
2018-03-20T08:09:20.936Z,34.47
2018-03-20T08:11:49.347Z,30.10
2018-03-20T08:14:16.867Z,34.33
2018-03-20T08:16:44.391Z,41.43
2018-03-20T08:19:12.698Z,31.60
2018-03-20T08:21:40.220Z,35.97
2018-03-20T08:24:07.812Z,27.53
2018-03-20T08:26:35.490Z,28.77
2018-03-20T08:29:04.017Z,35.07
2018-03-20T08:31:31.680Z,37.00
2018-03-20T08:34:00.399Z,33.03
2018-03-20T08:36:27.931Z,47.23
2018-03-20T08:38:55.503Z,36.93
2018-03-20T08:41:23.815Z,36.40
2018-03-20T08:43:51.455Z,41.93
2018-03-20T08:46:19.108Z,40.23
2018-03-20T08:48:46.625Z,46.70
2018-03-20T08:51:14.173Z,53.47
2018-03-20T08:53:42.472Z,39.23
2018-03-20T08:56:10.787Z,42.70
2018-03-20T08:58:38.307Z,46.37
2018-03-20T09:01:05.948Z,51.57
2018-03-20T09:03:33.826Z,43.00
2018-03-20T09:06:01.591Z,47.07
2018-03-20T09:08:29.518Z,48.80
2018-03-20T09:10:57.052Z,44.50
2018-03-20T09:13:24.610Z,49.47
2018-03-20T09:15:52.153Z,40.43
2018-03-20T09:18:19.717Z,47.40
2018-03-20T09:20:48.045Z,42.80
2018-03-20T09:23:15.626Z,44.63
2018-03-20T09:25:43.183Z,38.60
2018-03-20T09:28:10.692Z,38.47
2018-03-20T09:30:38.236Z,35.47
2018-03-20T09:33:06.678Z,34.43
2018-03-20T09:35:35.533Z,38.37
2018-03-20T09:38:03.435Z,35.83
2018-03-20T09:40:31.853Z,33.07
2018-03-20T09:43:04.155Z,37.60
2018-03-20T09:45:31.967Z,31.40
2018-03-20T09:48:00.499Z,36.30
2018-03-20T09:50:28.196Z,30.27
2018-03-20T09:52:55.800Z,33.47
2018-03-20T09:55:23.365Z,34.13
2018-03-20T09:57:50.956Z,27.77
2018-03-20T10:00:18.481Z,27.30
2018-03-20T10:02:46.875Z,25.07
2018-03-20T10:05:15.220Z,31.40
2018-03-20T10:07:42.738Z,26.03
2018-03-20T10:10:10.292Z,27.97
2018-03-20T10:12:37.811Z,22.63
2018-03-20T10:15:05.439Z,25.43
2018-03-20T10:17:33.805Z,21.63
2018-03-20T10:20:02.730Z,21.87
2018-03-20T10:22:30.590Z,22.60
2018-03-20T10:24:58.343Z,22.83
2018-03-20T10:27:26.838Z,15.40
2018-03-20T10:29:54.380Z,10.73
2018-03-20T10:32:21.934Z,9.20
2018-03-20T10:34:49.489Z,10.10
2018-03-20T10:37:17.045Z,7.17
2018-03-20T10:39:44.552Z,4.97
2018-03-20T10:42:12.095Z,7.23
2018-03-20T10:44:40.379Z,6.80
2018-03-20T10:47:08.698Z,4.40
2018-03-20T10:49:36.323Z,5.33
2018-03-20T10:52:04.779Z,6.77
2018-03-20T10:54:32.324Z,4.23
2018-03-20T10:56:59.943Z,4.67
2018-03-20T10:59:27.475Z,5.83
2018-03-20T11:01:55.028Z,4.63
2018-03-20T11:04:23.422Z,5.07
2018-03-20T11:06:50.953Z,5.60
2018-03-20T11:09:18.490Z,3.57
2018-03-20T11:11:46.018Z,4.13
2018-03-20T11:14:14.329Z,3.50
2018-03-20T11:16:42.608Z,4.43
2018-03-20T11:19:10.933Z,4.37
2018-03-20T11:21:38.449Z,3.63
2018-03-20T11:24:06.039Z,3.47
2018-03-20T11:26:34.207Z,3.43
2018-03-20T11:29:02.633Z,5.53
2018-03-20T11:31:30.428Z,4.87
2018-03-20T11:33:58.898Z,3.07
2018-03-20T11:36:26.477Z,3.10
2018-03-20T11:38:54.000Z,2.53
2018-03-20T11:41:21.536Z,2.33
2018-03-20T11:43:49.048Z,2.97
2018-03-20T11:46:16.620Z,3.63
2018-03-20T11:48:44.149Z,1.93
2018-03-20T11:51:11.762Z,3.50
2018-03-20T11:53:40.094Z,3.60
2018-03-20T11:56:07.690Z,2.77
2018-03-20T11:58:35.283Z,2.63
2018-03-20T12:01:02.972Z,2.43
2018-03-20T12:03:31.400Z,1.37
2018-03-20T12:05:59.018Z,2.10
2018-03-20T12:08:38.456Z,2.80
2018-03-20T12:11:06.012Z,3.53
2018-03-20T12:13:33.726Z,3.03
2018-03-20T12:16:01.292Z,2.20
2018-03-20T12:18:29.733Z,1.50
2018-03-20T12:20:57.294Z,1.60
2018-03-20T12:23:24.845Z,2.93
2018-03-20T12:25:53.180Z,2.90
2018-03-20T12:28:20.713Z,1.60
2018-03-20T12:30:49.019Z,1.97
2018-03-20T12:33:16.543Z,1.37
2018-03-20T12:35:44.080Z,1.63
2018-03-20T12:38:11.612Z,2.90
2018-03-20T12:40:39.960Z,2.20
2018-03-20T12:43:07.520Z,2.30
2018-03-20T12:45:35.195Z,1.83
2018-03-20T12:48:02.848Z,2.63
2018-03-20T12:50:30.541Z,2.43
2018-03-20T12:52:58.128Z,1.67
2018-03-20T12:55:25.741Z,1.00
2018-03-20T12:57:54.056Z,1.47
2018-03-20T13:00:21.667Z,1.57
2018-03-20T13:02:49.396Z,1.70
2018-03-20T13:05:16.988Z,1.23
2018-03-20T13:07:44.529Z,1.70
2018-03-20T13:10:13.541Z,2.20
2018-03-20T13:12:41.079Z,1.27
2018-03-20T13:15:08.606Z,2.37
2018-03-20T13:17:36.138Z,1.13
2018-03-20T13:20:04.540Z,1.60
2018-03-20T13:22:32.167Z,1.20
2018-03-20T13:24:59.889Z,2.93
2018-03-20T13:27:27.438Z,1.20
2018-03-20T13:29:55.060Z,1.40
2018-03-20T13:32:22.680Z,1.97
2018-03-20T13:34:51.081Z,2.20
2018-03-20T13:37:18.625Z,1.37
2018-03-20T13:39:46.961Z,2.77
2018-03-20T13:42:14.503Z,1.10
2018-03-20T13:44:42.017Z,1.90
2018-03-20T13:47:13.108Z,1.07
2018-03-20T13:49:40.628Z,2.30
2018-03-20T13:52:09.081Z,1.57
2018-03-20T13:54:37.759Z,0.93
2018-03-20T13:57:05.409Z,1.33
2018-03-20T13:59:33.017Z,1.50
2018-03-20T14:02:01.579Z,1.20
2018-03-20T14:04:30.309Z,2.03
2018-03-20T14:06:58.735Z,1.50
2018-03-20T14:09:27.097Z,1.27
2018-03-20T14:11:54.607Z,1.53
2018-03-20T14:14:22.183Z,2.10
2018-03-20T14:16:49.768Z,2.17
2018-03-20T14:19:17.317Z,1.10
2018-03-20T14:21:44.853Z,2.57
2018-03-20T14:24:12.386Z,1.43
2018-03-20T14:26:39.912Z,1.27
2018-03-20T14:29:07.507Z,1.27
2018-03-20T14:31:35.284Z,1.10
2018-03-20T14:34:03.219Z,1.83
2018-03-20T14:36:31.656Z,1.53
2018-03-20T14:39:00.123Z,2.90
2018-03-20T14:41:28.928Z,1.70
2018-03-20T14:43:56.490Z,2.03
2018-03-20T14:46:24.046Z,1.90
2018-03-20T14:48:51.540Z,1.53
2018-03-20T14:51:19.965Z,1.17
2018-03-20T14:53:47.488Z,1.17
2018-03-20T14:56:15.827Z,2.20
2018-03-20T14:58:43.340Z,1.87
2018-03-20T15:01:10.893Z,2.20
2018-03-20T15:03:38.409Z,0.80
2018-03-20T15:06:06.357Z,1.27
2018-03-20T15:08:33.905Z,1.97
2018-03-20T15:11:01.486Z,2.67
2018-03-20T15:13:29.118Z,0.70
2018-03-20T15:15:56.648Z,0.73
2018-03-20T15:18:24.253Z,1.03
2018-03-20T15:20:51.735Z,1.53
2018-03-20T15:23:19.520Z,1.13
2018-03-20T15:25:47.039Z,2.03
2018-03-20T15:28:14.572Z,1.60
2018-03-20T15:30:42.080Z,1.27
2018-03-20T15:33:10.457Z,0.80
2018-03-20T15:35:38.040Z,2.73
2018-03-20T15:38:05.564Z,1.13
2018-03-20T15:40:33.242Z,2.97
2018-03-20T15:43:00.916Z,0.90
2018-03-20T15:45:29.324Z,1.10
2018-03-20T15:47:56.844Z,1.73
2018-03-20T15:50:24.382Z,1.40
2018-03-20T15:52:52.058Z,1.03
2018-03-20T15:55:19.831Z,0.57
2018-03-20T15:57:47.365Z,1.50
2018-03-20T16:00:14.883Z,1.17
2018-03-20T16:02:42.706Z,3.50
2018-03-20T16:05:10.224Z,0.70
2018-03-20T16:07:37.732Z,1.93
2018-03-20T16:10:05.373Z,1.47
2018-03-20T16:12:33.862Z,2.83
2018-03-20T16:15:01.484Z,0.57
2018-03-20T16:17:29.194Z,5.47
2018-03-20T16:19:56.738Z,3.70
2018-03-20T16:22:24.247Z,1.43
2018-03-20T16:24:51.939Z,0.97
2018-03-20T16:27:20.513Z,1.03
2018-03-20T16:29:48.043Z,0.97
2018-03-20T16:32:15.576Z,0.97
2018-03-20T16:34:43.868Z,2.07
2018-03-20T16:37:12.220Z,1.30
2018-03-20T16:39:39.743Z,1.83
2018-03-20T16:42:07.243Z,2.13
2018-03-20T16:44:34.841Z,1.87
2018-03-20T16:47:02.687Z,2.67
2018-03-20T16:49:30.523Z,2.53
2018-03-20T16:51:58.101Z,1.97
2018-03-20T16:54:25.694Z,1.70
2018-03-20T16:56:53.243Z,0.80
2018-03-20T16:59:21.617Z,0.97
2018-03-20T17:01:49.354Z,1.67
2018-03-20T17:04:16.877Z,3.00
2018-03-20T17:06:45.145Z,1.13
2018-03-20T17:09:12.677Z,0.73
2018-03-20T17:11:40.191Z,1.17
2018-03-20T17:14:07.729Z,2.57
2018-03-20T17:16:35.324Z,2.50
2018-03-20T17:19:02.877Z,1.40
2018-03-20T17:21:30.669Z,1.60
2018-03-20T17:23:58.298Z,1.03
2018-03-20T17:26:25.856Z,2.00
2018-03-20T17:28:53.384Z,1.50
2018-03-20T17:31:21.028Z,2.40
2018-03-20T17:33:48.593Z,1.60
2018-03-20T17:36:16.122Z,1.97
2018-03-20T17:38:44.433Z,2.87
2018-03-20T17:41:11.948Z,3.43
2018-03-20T17:43:39.456Z,2.80
2018-03-20T17:46:07.762Z,2.37
2018-03-20T17:48:35.327Z,1.90
2018-03-20T17:51:03.020Z,1.23
2018-03-20T17:53:30.664Z,1.47
2018-03-20T17:55:58.272Z,1.83
2018-03-20T17:58:26.040Z,2.10
2018-03-20T18:00:53.559Z,2.63
2018-03-20T18:03:21.305Z,1.73
2018-03-20T18:05:48.868Z,3.50
2018-03-20T18:08:16.440Z,2.87
2018-03-20T18:10:43.966Z,1.40
2018-03-20T18:13:12.247Z,1.70
2018-03-20T18:15:39.792Z,2.77
2018-03-20T18:18:08.109Z,2.23
2018-03-20T18:20:36.507Z,1.93
2018-03-20T18:23:04.862Z,2.60
2018-03-20T18:25:32.415Z,3.07
2018-03-20T18:28:00.408Z,2.77
2018-03-20T18:30:28.828Z,2.97
2018-03-20T18:32:56.372Z,2.53
2018-03-20T18:35:23.891Z,2.30
2018-03-20T18:37:52.505Z,2.97
2018-03-20T18:40:20.116Z,2.30
2018-03-20T18:42:47.685Z,2.53
2018-03-20T18:45:15.325Z,3.97
2018-03-20T18:47:42.890Z,4.13
2018-03-20T18:50:10.427Z,4.13
2018-03-20T18:52:38.708Z,3.47
2018-03-20T18:55:06.323Z,4.37
2018-03-20T18:57:34.225Z,4.00
2018-03-20T19:00:01.967Z,2.20
2018-03-20T19:02:29.701Z,4.23
2018-03-20T19:04:57.235Z,2.57
2018-03-20T19:07:24.786Z,2.97
2018-03-20T19:09:52.395Z,4.17
2018-03-20T19:12:20.000Z,3.40
2018-03-20T19:14:48.360Z,2.80
2018-03-20T19:17:15.925Z,3.23
2018-03-20T19:19:43.463Z,1.90
2018-03-20T19:22:10.993Z,2.77
2018-03-20T19:24:38.533Z,4.93
2018-03-20T19:27:06.116Z,3.50
2018-03-20T19:29:34.780Z,3.97
2018-03-20T19:32:02.533Z,3.13
2018-03-20T19:34:30.216Z,4.10
2018-03-20T19:36:57.789Z,2.73
2018-03-20T19:39:25.450Z,4.33
2018-03-20T19:41:53.791Z,2.73
2018-03-20T19:44:25.011Z,4.07
2018-03-20T19:46:52.632Z,3.63
2018-03-20T19:49:20.279Z,3.00
2018-03-20T19:51:47.852Z,3.93
2018-03-20T19:54:15.495Z,4.50
2018-03-20T19:56:43.146Z,3.00
2018-03-20T19:59:11.513Z,3.33
2018-03-20T20:01:39.068Z,3.67
2018-03-20T20:04:07.484Z,5.57
2018-03-20T20:06:35.051Z,5.50
2018-03-20T20:09:02.660Z,4.20
2018-03-20T20:11:31.000Z,7.00
2018-03-20T20:13:58.698Z,4.23
2018-03-20T20:16:26.270Z,4.40
2018-03-20T20:18:53.797Z,5.70
2018-03-20T20:21:21.357Z,3.37
2018-03-20T20:23:48.948Z,4.90
2018-03-20T20:26:16.516Z,3.00
2018-03-20T20:28:44.092Z,6.33
2018-03-20T20:31:11.628Z,5.60
2018-03-20T20:33:40.005Z,4.70
2018-03-20T20:36:08.301Z,4.00
2018-03-20T20:38:36.628Z,3.67
2018-03-20T20:41:04.173Z,4.67
2018-03-20T20:43:31.875Z,6.10
2018-03-20T20:45:59.575Z,4.57
2018-03-20T20:48:27.103Z,4.47
2018-03-20T20:50:54.629Z,4.73
2018-03-20T20:53:22.173Z,4.40
2018-03-20T20:55:49.785Z,4.00
2018-03-20T20:58:18.746Z,4.10
2018-03-20T21:00:46.312Z,3.60
2018-03-20T21:03:13.858Z,3.33
2018-03-20T21:05:41.385Z,4.00
2018-03-20T21:08:08.922Z,6.00
2018-03-20T21:10:36.436Z,4.47
2018-03-20T21:13:04.143Z,4.07
2018-03-20T21:15:31.774Z,4.97
2018-03-20T21:17:59.411Z,7.83
2018-03-20T21:20:26.946Z,5.03
2018-03-20T21:22:55.229Z,4.07
2018-03-20T21:25:22.782Z,4.10
2018-03-20T21:27:50.426Z,4.77
2018-03-20T21:30:17.975Z,4.97
2018-03-20T21:32:45.539Z,5.00
2018-03-20T21:35:13.091Z,4.80
2018-03-20T21:37:42.326Z,5.87
2018-03-20T21:40:09.862Z,6.67
2018-03-20T21:42:37.399Z,7.77
2018-03-20T21:45:05.058Z,3.13
2018-03-20T21:47:33.186Z,6.37
2018-03-20T21:50:00.816Z,5.37
2018-03-20T21:52:28.479Z,4.63
2018-03-20T21:54:55.999Z,4.20
2018-03-20T21:57:23.525Z,5.87
2018-03-20T21:59:51.704Z,4.27
2018-03-20T22:02:19.686Z,6.43
2018-03-20T22:04:47.237Z,5.27
2018-03-20T22:07:14.752Z,6.03
2018-03-20T22:09:42.281Z,5.93
2018-03-20T22:12:09.786Z,6.70
2018-03-20T22:14:37.328Z,8.80
2018-03-20T22:17:04.973Z,9.03
2018-03-20T22:19:33.396Z,7.67
2018-03-20T22:22:01.038Z,6.83
2018-03-20T22:24:29.052Z,5.00
2018-03-20T22:26:56.653Z,7.73
2018-03-20T22:29:25.123Z,6.00
2018-03-20T22:31:52.664Z,5.57
2018-03-20T22:34:21.051Z,11.57
2018-03-20T22:36:49.343Z,7.57
2018-03-20T22:39:16.861Z,6.27
2018-03-20T22:41:44.398Z,7.53
2018-03-20T22:44:12.057Z,5.03
2018-03-20T22:46:39.604Z,6.07
2018-03-20T22:49:07.916Z,6.80
2018-03-20T22:51:37.049Z,4.50
2018-03-20T22:54:04.663Z,6.03
2018-03-20T22:56:33.364Z,6.50
2018-03-20T22:59:01.325Z,3.83
2018-03-20T23:01:28.951Z,6.10
2018-03-20T23:03:56.632Z,8.20
2018-03-20T23:06:24.136Z,7.53
2018-03-20T23:08:51.892Z,6.40
2018-03-20T23:11:19.460Z,5.70
2018-03-20T23:13:46.994Z,3.97
2018-03-20T23:16:14.529Z,9.77
2018-03-20T23:18:42.031Z,4.57
2018-03-20T23:21:09.569Z,5.43
2018-03-20T23:23:37.129Z,4.33
2018-03-20T23:26:04.825Z,5.40
2018-03-20T23:28:32.427Z,3.90
2018-03-20T23:31:00.136Z,4.80
2018-03-20T23:33:28.837Z,4.33
2018-03-20T23:35:56.389Z,4.77
2018-03-20T23:38:23.920Z,5.83
2018-03-20T23:40:51.448Z,6.97
2018-03-20T23:43:19.108Z,5.10
2018-03-20T23:45:46.629Z,5.13
2018-03-20T23:48:14.162Z,7.47
2018-03-20T23:50:41.704Z,6.07
2018-03-20T23:53:09.981Z,5.83
2018-03-20T23:55:37.517Z,8.23
2018-03-20T23:58:05.284Z,8.67
